Time;durP1;ratioP1;P1;durP2;ratioP2;P2;SDS_P1;SDS_P2;PMS_P1;PMS_P2;Temp;Humidity;BMP_temperature;BMP_pressure;BME280_temperature;BME280_humidity;BME280_pressure;Samples;Min_cycle;Max_cycle;Signal;HPM_P1;HPM_P2
2023/03/26 00:00:43;;;;;;;23.17;4.35;;;7.20;99.90;;;;;;5071870;28;20451;-62
2023/03/26 00:03:10;;;;;;;17.73;2.88;;;6.90;99.90;;;;;;5072312;28;20132;-62
2023/03/26 00:05:37;;;;;;;19.83;4.15;;;8.50;99.90;;;;;;5072142;28;20036;-62
2023/03/26 00:08:03;;;;;;;19.48;3.10;;;7.10;99.90;;;;;;5070856;28;20127;-62
2023/03/26 00:10:28;;;;;;;17.50;3.03;;;6.80;99.90;;;;;;5071777;28;20124;-62
2023/03/26 00:12:54;;;;;;;16.13;2.78;;;7.40;99.90;;;;;;5073525;28;20044;-61
2023/03/26 00:15:20;;;;;;;18.00;2.85;;;7.20;99.90;;;;;;5072238;28;20102;-62
2023/03/26 00:17:46;;;;;;;20.20;2.65;;;7.00;99.90;;;;;;5086585;28;20392;-61
2023/03/26 00:20:12;;;;;;;27.50;4.00;;;6.90;99.90;;;;;;5072243;28;20050;-62
2023/03/26 00:22:39;;;;;;;26.20;4.57;;;7.00;99.90;;;;;;5073686;28;20064;-62
2023/03/26 00:25:08;;;;;;;18.75;2.92;;;7.60;99.90;;;;;;5071881;28;20040;-61
2023/03/26 00:27:34;;;;;;;17.23;3.38;;;6.90;99.90;;;;;;5071850;28;20619;-61
2023/03/26 00:30:02;;;;;;;21.38;3.75;;;6.90;99.90;;;;;;5072395;28;20052;-61
2023/03/26 00:32:29;;;;;;;21.00;3.58;;;7.00;99.90;;;;;;5071764;28;20105;-61
2023/03/26 00:34:56;;;;;;;24.75;3.83;;;7.80;99.90;;;;;;5072515;28;20033;-61
2023/03/26 00:37:25;;;;;;;28.92;3.58;;;8.90;99.90;;;;;;5085595;28;20548;-61
2023/03/26 00:39:58;;;;;;;22.92;3.08;;;7.50;99.90;;;;;;5070628;28;20067;-61
2023/03/26 00:42:25;;;;;;;19.90;2.47;;;7.10;99.90;;;;;;5070801;28;20098;-61
2023/03/26 00:44:54;;;;;;;18.17;3.13;;;8.30;99.90;;;;;;5070757;28;20095;-61
2023/03/26 00:47:20;;;;;;;21.27;2.67;;;6.70;99.90;;;;;;5073734;28;20039;-61
2023/03/26 00:49:47;;;;;;;22.27;4.10;;;8.40;99.90;;;;;;5075837;28;20524;-61
2023/03/26 00:52:17;;;;;;;26.58;3.83;;;7.10;99.90;;;;;;5075561;28;20109;-61
2023/03/26 00:54:44;;;;;;;19.63;2.75;;;6.60;99.90;;;;;;5074603;28;20039;-61
2023/03/26 00:57:10;;;;;;;20.55;3.55;;;7.40;99.90;;;;;;5075451;28;20036;-61
2023/03/26 00:59:37;;;;;;;19.15;2.95;;;4.80;99.90;;;;;;5074524;28;20051;-61
2023/03/26 01:02:03;;;;;;;25.30;3.92;;;8.70;99.90;;;;;;5075397;28;20040;-61
2023/03/26 01:04:33;;;;;;;19.02;3.00;;;6.60;99.90;;;;;;5073961;28;20075;-61
2023/03/26 01:07:27;;;;;;;15.60;2.83;;;6.70;99.90;;;;;;5074326;28;20492;-61
2023/03/26 01:09:56;;;;;;;25.42;3.85;;;8.70;99.90;;;;;;5072319;28;20064;-61
2023/03/26 01:12:30;;;;;;;18.02;3.95;;;6.60;99.90;;;;;;5075226;28;20070;-61
2023/03/26 01:14:59;;;;;;;19.98;3.15;;;6.80;99.90;;;;;;5074353;28;20127;-61
2023/03/26 01:17:32;;;;;;;17.50;3.88;;;6.80;99.90;;;;;;5074868;28;20036;-61
2023/03/26 01:20:18;;;;;;;22.60;3.15;;;6.60;99.90;;;;;;5075085;28;20032;-61
2023/03/26 01:22:51;;;;;;;22.40;4.03;;;7.10;99.90;;;;;;5075590;28;20186;-61
2023/03/26 01:25:17;;;;;;;26.33;3.58;;;6.70;99.90;;;;;;5074377;28;20044;-61
2023/03/26 01:27:53;;;;;;;23.95;3.63;;;6.70;99.90;;;;;;5076538;28;20078;-61
2023/03/26 01:30:50;;;;;;;21.10;4.72;;;8.00;99.90;;;;;;5074495;28;20075;-61
2023/03/26 01:33:32;;;;;;;16.35;3.20;;;6.70;99.90;;;;;;5072886;28;20050;-61
2023/03/26 01:36:27;;;;;;;20.75;3.47;;;6.40;99.90;;;;;;5074499;28;20529;-61
2023/03/26 01:39:11;;;;;;;22.40;4.13;;;6.50;99.90;;;;;;5044522;28;20168;-61
2023/03/26 01:41:52;;;;;;;27.42;3.85;;;6.50;99.90;;;;;;5075859;28;20082;-61
2023/03/26 01:44:37;;;;;;;23.17;4.90;;;6.30;99.90;;;;;;5074700;28;20039;-61
2023/03/26 01:47:05;;;;;;;20.80;5.15;;;6.40;99.90;;;;;;5074964;28;20051;-61
2023/03/26 01:49:31;;;;;;;21.75;3.00;;;6.30;99.90;;;;;;5075507;28;20355;-61
2023/03/26 01:51:57;;;;;;;14.70;4.00;;;6.20;99.90;;;;;;5075464;28;20074;-61
2023/03/26 01:54:27;;;;;;;17.27;3.42;;;6.00;99.90;;;;;;5074122;28;20048;-61
2023/03/26 01:57:17;;;;;;;26.58;4.97;;;6.00;99.90;;;;;;5073387;28;20764;-61
2023/03/26 01:59:58;;;;;;;15.98;2.63;;;6.00;99.90;;;;;;5073621;28;20044;-62
2023/03/26 02:02:41;;;;;;;19.52;3.65;;;6.00;99.90;;;;;;5074606;28;20035;-62
2023/03/26 02:05:28;;;;;;;21.33;3.47;;;6.00;99.90;;;;;;5072996;28;20109;-61
2023/03/26 02:08:34;;;;;;;20.40;3.63;;;5.90;99.90;;;;;;5073389;28;20036;-61
2023/03/26 02:11:04;;;;;;;15.52;3.50;;;6.00;99.90;;;;;;5088962;28;20574;-62
2023/03/26 02:13:30;;;;;;;22.67;3.80;;;5.90;99.90;;;;;;5073271;28;20048;-61
2023/03/26 02:16:01;;;;;;;25.80;3.47;;;5.90;99.90;;;;;;5074534;28;20046;-61
2023/03/26 02:18:37;;;;;;;24.38;4.38;;;5.80;99.90;;;;;;5073725;28;20036;-62
2023/03/26 02:21:22;;;;;;;20.77;3.78;;;5.80;99.90;;;;;;5073930;28;20382;-62
2023/03/26 02:24:01;;;;;;;18.65;3.42;;;6.70;99.90;;;;;;5074021;28;20389;-61
2023/03/26 02:26:28;;;;;;;18.83;3.55;;;5.80;99.90;;;;;;5073088;28;20024;-61
2023/03/26 02:28:54;;;;;;;22.58;3.83;;;5.90;99.90;;;;;;5073180;28;20101;-61
2023/03/26 02:31:20;;;;;;;13.23;3.17;;;5.90;99.90;;;;;;5073284;28;20044;-62
2023/03/26 02:33:46;;;;;;;20.77;3.67;;;6.00;99.90;;;;;;5071112;28;20044;-61
2023/03/26 02:36:12;;;;;;;20.48;3.25;;;6.00;99.90;;;;;;5072694;28;20039;-62
2023/03/26 02:38:40;;;;;;;26.65;4.38;;;8.20;99.90;;;;;;5074050;28;20096;-61
2023/03/26 02:41:06;;;;;;;23.45;5.25;;;5.90;99.90;;;;;;5073501;28;20055;-61
2023/03/26 02:43:32;;;;;;;23.63;4.03;;;8.00;99.90;;;;;;5072528;28;20047;-61
2023/03/26 02:45:58;;;;;;;24.85;4.18;;;6.20;99.90;;;;;;5072605;28;20040;-61
2023/03/26 02:48:23;;;;;;;20.23;3.17;;;6.80;99.90;;;;;;5072163;28;20035;-61
2023/03/26 02:50:53;;;;;;;18.50;3.70;;;6.90;99.90;;;;;;5073998;28;20229;-62
2023/03/26 02:53:20;;;;;;;23.65;3.40;;;6.10;99.90;;;;;;5072732;28;20416;-62
2023/03/26 02:55:46;;;;;;;22.77;4.30;;;6.20;99.90;;;;;;5072870;28;20708;-61
2023/03/26 02:58:16;;;;;;;22.75;4.60;;;6.10;99.90;;;;;;5071959;28;20042;-62
2023/03/26 03:00:45;;;;;;;24.05;3.65;;;7.60;99.90;;;;;;5071703;28;20059;-61
2023/03/26 03:03:12;;;;;;;19.75;3.95;;;6.10;99.90;;;;;;5071638;28;20044;-61
2023/03/26 03:05:41;;;;;;;26.48;4.35;;;5.90;99.90;;;;;;5073229;28;20040;-61
2023/03/26 03:08:08;;;;;;;22.52;4.80;;;6.00;99.90;;;;;;5074080;28;20058;-61
2023/03/26 03:10:34;;;;;;;18.75;3.58;;;6.20;99.90;;;;;;5072207;28;20131;-62
2023/03/26 03:13:00;;;;;;;19.83;4.13;;;6.20;99.90;;;;;;5072520;28;20375;-62
2023/03/26 03:15:27;;;;;;;25.52;3.47;;;6.20;99.90;;;;;;5073361;28;20048;-62
2023/03/26 03:17:52;;;;;;;26.50;3.60;;;6.00;99.90;;;;;;5072515;28;20936;-61
2023/03/26 03:20:18;;;;;;;27.20;4.63;;;6.10;99.90;;;;;;5072868;28;20089;-62
2023/03/26 03:22:44;;;;;;;18.45;3.17;;;8.10;99.90;;;;;;5074083;28;20044;-61
2023/03/26 03:25:13;;;;;;;17.80;3.25;;;6.90;99.90;;;;;;5072739;28;20036;-62
2023/03/26 03:27:41;;;;;;;21.67;3.88;;;6.10;99.90;;;;;;5070828;28;20052;-61
2023/03/26 03:30:09;;;;;;;24.13;3.90;;;6.10;99.90;;;;;;5071121;28;20129;-62
2023/03/26 03:32:35;;;;;;;20.05;3.97;;;5.90;99.90;;;;;;5069179;28;20050;-61
2023/03/26 03:35:01;;;;;;;29.30;4.57;;;6.00;99.90;;;;;;5069929;28;20044;-62
2023/03/26 03:37:27;;;;;;;32.10;4.10;;;6.00;99.90;;;;;;5072073;28;20134;-62
2023/03/26 03:39:52;;;;;;;19.38;3.45;;;6.20;99.90;;;;;;5071162;28;20040;-62
2023/03/26 03:42:18;;;;;;;21.58;3.22;;;5.80;99.90;;;;;;5071718;28;20035;-62
2023/03/26 03:44:44;;;;;;;32.20;3.33;;;5.60;99.90;;;;;;5071985;28;20078;-62
2023/03/26 03:47:12;;;;;;;21.58;4.68;;;5.60;99.90;;;;;;5070900;28;20128;-62
2023/03/26 03:49:39;;;;;;;20.67;3.33;;;5.60;99.90;;;;;;5070966;28;20520;-62
2023/03/26 03:52:05;;;;;;;17.90;3.47;;;5.40;99.90;;;;;;5072938;28;20048;-62
2023/03/26 03:54:31;;;;;;;25.58;3.58;;;5.30;99.90;;;;;;5072271;28;20036;-62
2023/03/26 03:56:57;;;;;;;20.92;3.55;;;5.20;99.90;;;;;;5071527;28;20531;-61
2023/03/26 03:59:23;;;;;;;27.25;4.95;;;5.10;99.90;;;;;;5069965;28;20778;-61
2023/03/26 04:01:49;;;;;;;27.10;3.42;;;4.90;99.90;;;;;;5071401;28;20809;-62
2023/03/26 04:04:16;;;;;;;23.90;3.47;;;4.90;99.90;;;;;;5071096;28;20036;-62
2023/03/26 04:06:42;;;;;;;18.05;3.05;;;;;;;;;;5069689;28;20036;-62
2023/03/26 04:09:10;;;;;;;21.98;3.72;;;4.70;99.90;;;;;;5070583;28;20040;-62
2023/03/26 04:11:36;;;;;;;22.08;3.35;;;;;;;;;;5070823;28;20048;-62
2023/03/26 04:14:03;;;;;;;21.52;2.85;;;;;;;;;;5072624;28;20061;-62
2023/03/26 04:16:28;;;;;;;18.48;3.20;;;4.50;99.90;;;;;;5070960;28;20043;-62
2023/03/26 04:18:56;;;;;;;31.05;3.67;;;4.30;99.90;;;;;;5071723;28;20039;-62
2023/03/26 04:21:23;;;;;;;22.73;3.95;;;;;;;;;;5074639;28;20047;-62
2023/03/26 04:23:49;;;;;;;18.95;3.20;;;;;;;;;;5077326;28;20097;-62
2023/03/26 04:26:18;;;;;;;20.27;3.28;;;4.30;99.90;;;;;;5077099;28;20719;-62
2023/03/26 04:28:58;;;;;;;22.02;3.10;;;4.40;99.90;;;;;;5076030;28;20040;-62
2023/03/26 04:31:27;;;;;;;18.23;3.42;;;4.40;99.90;;;;;;5075268;28;20061;-62
2023/03/26 04:33:58;;;;;;;21.65;3.05;;;4.30;99.90;;;;;;5075360;28;20067;-62
2023/03/26 04:36:33;;;;;;;15.10;3.15;;;4.50;99.90;;;;;;5074278;28;20094;-62
2023/03/26 04:39:02;;;;;;;21.02;4.10;;;4.40;99.90;;;;;;5075436;28;20059;-62
2023/03/26 04:41:29;;;;;;;20.20;3.30;;;;;;;;;;5075066;28;20051;-62
2023/03/26 04:43:55;;;;;;;19.08;3.05;;;4.50;99.90;;;;;;5074164;28;20040;-62
2023/03/26 04:46:22;;;;;;;25.27;3.40;;;4.40;99.90;;;;;;5073592;28;20079;-62
2023/03/26 04:48:52;;;;;;;19.80;3.60;;;4.60;99.90;;;;;;5074158;28;20070;-62
2023/03/26 04:51:23;;;;;;;16.52;2.97;;;4.50;99.90;;;;;;5074895;28;20101;-62
2023/03/26 04:53:58;;;;;;;21.90;3.50;;;4.50;99.90;;;;;;5074805;28;20595;-62
2023/03/26 04:56:40;;;;;;;22.50;3.75;;;4.40;99.90;;;;;;5075629;28;20452;-62
2023/03/26 04:59:06;;;;;;;21.10;3.40;;;;;;;;;;5074254;28;20044;-63
2023/03/26 05:01:36;;;;;;;22.27;3.22;;;4.30;99.90;;;;;;5074318;28;20050;-62
2023/03/26 05:04:02;;;;;;;16.73;3.17;;;4.30;99.90;;;;;;5072708;28;20051;-62
2023/03/26 05:06:29;;;;;;;21.58;3.28;;;4.20;99.90;;;;;;5090382;28;20048;-62
2023/03/26 05:08:55;;;;;;;21.48;4.45;;;;;;;;;;5074915;28;20036;-62
2023/03/26 05:11:21;;;;;;;16.65;2.80;;;;;;;;;;5072891;28;20044;-62
2023/03/26 05:13:47;;;;;;;21.45;2.92;;;4.00;99.90;;;;;;5074141;28;20036;-62
2023/03/26 05:16:13;;;;;;;23.98;3.53;;;;;;;;;;5074440;28;20060;-63
2023/03/26 05:18:39;;;;;;;29.38;4.50;;;;;;;;;;5072834;28;20416;-62
2023/03/26 05:21:05;;;;;;;16.52;3.05;;;3.90;99.90;;;;;;5073208;28;20040;-62
2023/03/26 05:23:31;;;;;;;21.92;4.18;;;;;;;;;;5074099;28;20083;-62
2023/03/26 05:25:57;;;;;;;17.35;3.00;;;;;;;;;;5074708;28;20040;-63
2023/03/26 05:28:25;;;;;;;15.98;2.78;;;4.10;99.90;;;;;;5073761;28;20048;-63
2023/03/26 05:30:52;;;;;;;18.63;3.20;;;4.00;99.90;;;;;;5072488;28;20131;-63
2023/03/26 05:33:18;;;;;;;21.23;4.55;;;3.90;99.90;;;;;;5071826;28;20048;-62
2023/03/26 05:35:45;;;;;;;19.80;4.25;;;4.10;99.90;;;;;;5072896;28;20051;-63
2023/03/26 05:38:11;;;;;;;21.25;3.88;;;;;;;;;;5073720;28;20649;-62
2023/03/26 05:40:37;;;;;;;23.38;4.38;;;;;;;;;;5072532;28;20040;-62
2023/03/26 05:43:03;;;;;;;22.25;4.20;;;4.00;99.90;;;;;;5072851;28;20044;-63
2023/03/26 05:45:30;;;;;;;26.52;3.88;;;;;;;;;;5073551;28;20043;-63
2023/03/26 05:47:55;;;;;;;26.85;3.92;;;4.40;99.90;;;;;;5073781;28;20492;-62
2023/03/26 05:50:21;;;;;;;22.45;2.80;;;;;;;;;;5072363;28;20032;-63
2023/03/26 05:52:47;;;;;;;13.73;2.78;;;4.50;99.90;;;;;;5074535;28;20114;-62
2023/03/26 05:55:13;;;;;;;24.25;3.60;;;;;;;;;;5073072;28;20477;-62
2023/03/26 05:57:40;;;;;;;27.10;3.78;;;;;;;;;;5071656;28;20048;-62
2023/03/26 06:00:10;;;;;;;18.42;3.38;;;4.70;99.90;;;;;;5071732;28;20131;-63
2023/03/26 06:02:36;;;;;;;27.27;4.20;;;4.90;99.90;;;;;;5071487;28;20032;-63
2023/03/26 06:05:03;;;;;;;21.10;2.90;;;;;;;;;;5072813;28;20125;-63
2023/03/26 06:07:30;;;;;;;20.08;2.97;;;;;;;;;;5070590;28;20125;-62
2023/03/26 06:09:56;;;;;;;20.33;3.08;;;;;;;;;;5071541;28;20044;-62
2023/03/26 06:12:22;;;;;;;26.17;4.78;;;;;;;;;;5071330;28;20052;-62
2023/03/26 06:14:48;;;;;;;27.63;4.75;;;5.20;99.90;;;;;;5072183;28;20127;-62
2023/03/26 06:17:13;;;;;;;19.20;2.63;;;5.20;99.90;;;;;;5071679;28;20447;-62
2023/03/26 06:19:40;;;;;;;18.05;4.35;;;;;;;;;;5070416;28;20059;-62
2023/03/26 06:22:06;;;;;;;16.92;2.75;;;;;;;;;;5072587;28;20043;-63
2023/03/26 06:24:33;;;;;;;19.75;2.88;;;;;;;;;;5070957;28;20444;-62
2023/03/26 06:26:59;;;;;;;19.52;2.58;;;5.20;99.90;;;;;;5071374;28;20055;-62
2023/03/26 06:29:25;;;;;;;21.77;3.63;;;;;;;;;;5027792;28;1264946;-62
2023/03/26 06:31:51;;;;;;;15.50;2.75;;;;;;;;;;5072125;28;20052;-62
2023/03/26 06:34:18;;;;;;;26.90;4.63;;;;;;;;;;5073248;28;20032;-62
2023/03/26 06:36:43;;;;;;;18.50;2.70;;;5.50;99.90;;;;;;5072055;28;20699;-62
2023/03/26 06:39:09;;;;;;;29.90;3.75;;;5.50;99.90;;;;;;5072412;28;20050;-62
2023/03/26 06:41:35;;;;;;;17.88;3.33;;;5.60;99.90;;;;;;5071812;28;20043;-63
2023/03/26 06:44:01;;;;;;;25.35;4.82;;;5.60;99.90;;;;;;5073542;28;20109;-62
2023/03/26 06:46:29;;;;;;;17.88;3.40;;;5.70;99.90;;;;;;5072697;28;20036;-62
2023/03/26 06:48:55;;;;;;;14.75;2.63;;;5.90;99.90;;;;;;5072410;28;20500;-62
2023/03/26 06:51:21;;;;;;;21.40;3.63;;;5.90;99.90;;;;;;5074318;28;20150;-62
2023/03/26 06:53:46;;;;;;;16.92;3.28;;;6.00;99.90;;;;;;5074888;28;20052;-62
2023/03/26 06:56:12;;;;;;;17.13;2.65;;;5.90;99.90;;;;;;5073659;28;20426;-62
2023/03/26 06:58:38;;;;;;;15.90;2.20;;;6.00;99.90;;;;;;5073759;28;20040;-62
2023/03/26 07:01:04;;;;;;;20.00;2.95;;;6.20;99.90;;;;;;5073915;28;20094;-62
2023/03/26 07:03:30;;;;;;;17.45;2.95;;;6.10;99.90;;;;;;5072476;28;20040;-62
2023/03/26 07:05:55;;;;;;;15.05;2.92;;;6.40;99.90;;;;;;5072696;28;20369;-62
2023/03/26 07:08:21;;;;;;;20.35;3.65;;;6.30;99.90;;;;;;5072324;28;20062;-62
2023/03/26 07:10:47;;;;;;;28.73;4.68;;;;;;;;;;5073066;28;20048;-61
2023/03/26 07:13:13;;;;;;;18.35;3.20;;;6.40;99.90;;;;;;5072404;28;20032;-64
2023/03/26 07:15:39;;;;;;;14.82;2.47;;;6.30;99.90;;;;;;5072042;28;20040;-63
2023/03/26 07:18:05;;;;;;;18.27;2.60;;;6.30;99.90;;;;;;5072161;28;20036;-63
2023/03/26 07:20:31;;;;;;;15.80;2.53;;;6.40;99.90;;;;;;5072904;28;20051;-63
2023/03/26 07:22:57;;;;;;;17.60;2.63;;;6.40;99.90;;;;;;5072632;28;20052;-63
2023/03/26 07:25:23;;;;;;;25.73;5.40;;;;;;;;;;5070751;28;20056;-63
2023/03/26 07:28:19;;;;;;;21.70;3.20;;;6.30;99.90;;;;;;5072163;28;20539;-63
2023/03/26 07:30:59;;;;;;;19.83;3.15;;;6.30;99.90;;;;;;5072819;28;20501;-63
2023/03/26 07:33:25;;;;;;;16.00;2.50;;;6.50;99.90;;;;;;5071515;28;20039;-63
2023/03/26 07:36:14;;;;;;;16.05;3.28;;;6.40;99.90;;;;;;5071519;28;20584;-63
2023/03/26 07:39:05;;;;;;;29.45;4.35;;;6.70;99.90;;;;;;5068243;28;20055;-63
2023/03/26 07:41:51;;;;;;;17.85;3.08;;;6.80;99.90;;;;;;5070645;28;20563;-63
2023/03/26 07:44:42;;;;;;;19.25;3.65;;;6.80;99.90;;;;;;5071688;28;20047;-63
2023/03/26 07:47:37;;;;;;;26.38;10.32;;;6.80;99.90;;;;;;5071502;28;20044;-63
2023/03/26 07:50:04;;;;;;;17.50;4.05;;;7.10;99.90;;;;;;5071027;28;20040;-64
2023/03/26 07:52:30;;;;;;;14.02;2.50;;;7.20;99.90;;;;;;5070461;28;20043;-64
2023/03/26 07:54:56;;;;;;;15.15;2.20;;;7.30;99.90;;;;;;5072417;28;20054;-64
2023/03/26 07:57:58;;;;;;;21.17;3.47;;;7.50;99.90;;;;;;5071751;28;20048;-64
2023/03/26 08:00:31;;;;;;;14.85;2.42;;;7.60;99.90;;;;;;5071423;28;20127;-64
2023/03/26 08:03:22;;;;;;;14.02;2.90;;;8.40;99.90;;;;;;5072103;28;20105;-63
2023/03/26 08:06:00;;;;;;;14.38;2.92;;;9.40;99.90;;;;;;5071671;28;20328;-63
2023/03/26 08:08:32;;;;;;;13.93;2.65;;;10.80;99.90;;;;;;5072180;28;20412;-64
2023/03/26 08:11:17;;;;;;;17.75;3.17;;;11.80;99.90;;;;;;5072926;28;20444;-63
2023/03/26 08:13:58;;;;;;;22.13;2.85;;;12.00;99.90;;;;;;5071069;28;20039;-64
2023/03/26 08:16:37;;;;;;;13.88;2.90;;;12.00;99.90;;;;;;5071375;28;20039;-64
2023/03/26 08:19:20;;;;;;;12.75;1.98;;;11.90;99.90;;;;;;5072012;28;20449;-63
2023/03/26 08:21:56;;;;;;;12.63;4.13;;;12.30;99.90;;;;;;5070956;28;20077;-63
2023/03/26 08:25:00;;;;;;;10.68;2.17;;;11.90;99.90;;;;;;5071229;28;20770;-63
2023/03/26 08:28:07;;;;;;;9.00;2.13;;;11.50;99.90;;;;;;5069981;28;20040;-63
2023/03/26 08:30:33;;;;;;;12.38;2.38;;;10.70;99.90;;;;;;5007349;28;20053;-63
2023/03/26 08:33:10;;;;;;;13.82;2.45;;;10.50;99.90;;;;;;5061310;28;20060;-63
2023/03/26 08:35:41;;;;;;;18.23;4.57;;;9.90;99.90;;;;;;5070308;28;20047;-63
2023/03/26 08:38:08;;;;;;;14.90;2.67;;;9.80;99.90;;;;;;5069910;28;20063;-63
2023/03/26 08:41:05;;;;;;;15.70;2.63;;;9.10;99.90;;;;;;5070763;28;20086;-63
2023/03/26 08:43:51;;;;;;;14.30;2.90;;;8.90;99.90;;;;;;5070355;28;20843;-63
2023/03/26 08:46:58;;;;;;;19.08;2.70;;;8.70;99.90;;;;;;5070651;28;20040;-63
2023/03/26 08:49:43;;;;;;;18.95;2.75;;;8.80;99.90;;;;;;5069902;28;20687;-63
2023/03/26 08:52:24;;;;;;;18.58;2.75;;;9.20;99.90;;;;;;5070846;28;20097;-63
2023/03/26 08:55:09;;;;;;;14.35;4.35;;;9.10;99.90;;;;;;5070901;28;20097;-64
2023/03/26 08:57:50;;;;;;;15.55;2.60;;;8.90;99.90;;;;;;5071221;28;20040;-64
2023/03/26 09:00:31;;;;;;;15.40;6.03;;;8.90;99.90;;;;;;5070335;28;20043;-63
2023/03/26 09:03:28;;;;;;;20.45;4.82;;;8.80;99.90;;;;;;5071383;28;20052;-63
2023/03/26 09:06:19;;;;;;;15.80;3.10;;;8.40;99.90;;;;;;5070090;28;20058;-63
2023/03/26 09:09:18;;;;;;;14.80;2.58;;;8.60;99.90;;;;;;5073488;28;20561;-64
2023/03/26 09:12:11;;;;;;;17.63;2.58;;;8.90;99.90;;;;;;5064412;28;20089;-63
2023/03/26 09:14:55;;;;;;;16.70;3.45;;;9.10;99.90;;;;;;5074519;28;20040;-63
2023/03/26 09:17:39;;;;;;;16.77;2.80;;;9.50;99.90;;;;;;5074591;28;20396;-63
2023/03/26 09:20:42;;;;;;;14.93;2.42;;;9.30;99.90;;;;;;5073550;28;20142;-64
2023/03/26 09:23:29;;;;;;;11.27;2.47;;;9.10;99.90;;;;;;5075440;28;20522;-63
2023/03/26 09:26:24;;;;;;;12.05;2.05;;;9.10;99.90;;;;;;5075387;28;20050;-63
2023/03/26 09:29:01;;;;;;;15.70;2.72;;;8.80;99.90;;;;;;5074502;28;20114;-63
2023/03/26 09:31:56;;;;;;;13.77;2.85;;;8.80;99.90;;;;;;5074156;28;20079;-64
2023/03/26 09:34:40;;;;;;;11.00;2.22;;;8.80;99.90;;;;;;5073363;28;20505;-64
2023/03/26 09:37:25;;;;;;;19.13;2.38;;;8.30;99.90;;;;;;5075087;28;20074;-63
2023/03/26 09:40:21;;;;;;;19.08;3.72;;;8.30;99.90;;;;;;5074384;28;20845;-62
2023/03/26 09:43:15;;;;;;;17.90;2.80;;;8.20;99.90;;;;;;5074956;28;20097;-63
2023/03/26 09:46:02;;;;;;;16.65;2.70;;;8.10;99.90;;;;;;5072668;28;20579;-63
2023/03/26 09:48:47;;;;;;;12.70;2.22;;;8.10;99.90;;;;;;5073929;28;20389;-63
2023/03/26 09:51:41;;;;;;;13.57;2.42;;;8.10;99.90;;;;;;5072923;28;20496;-63
2023/03/26 09:54:32;;;;;;;15.57;2.20;;;8.00;99.90;;;;;;5074297;28;20387;-63
2023/03/26 09:57:04;;;;;;;25.30;3.90;;;8.00;99.90;;;;;;5074825;28;20044;-63
2023/03/26 09:59:47;;;;;;;18.00;3.83;;;8.10;99.90;;;;;;5073859;28;20061;-63
2023/03/26 10:02:43;;;;;;;16.48;3.35;;;8.30;99.90;;;;;;5073259;28;20044;-63
2023/03/26 10:05:30;;;;;;;16.25;2.10;;;8.10;99.90;;;;;;5073136;28;20124;-63
2023/03/26 10:08:33;;;;;;;13.95;2.42;;;8.20;99.90;;;;;;5074056;28;20087;-63
2023/03/26 10:11:09;;;;;;;11.15;2.53;;;8.40;99.90;;;;;;5073464;28;20043;-64
2023/03/26 10:13:54;;;;;;;15.68;2.70;;;8.20;99.90;;;;;;5072374;28;20036;-64
2023/03/26 10:16:52;;;;;;;18.17;2.83;;;9.00;99.90;;;;;;5071796;28;20040;-63
2023/03/26 10:19:55;;;;;;;14.57;3.10;;;7.90;99.90;;;;;;5066340;28;20067;-63
2023/03/26 10:22:54;;;;;;;14.43;3.20;;;8.30;99.90;;;;;;5071728;28;20143;-63
2023/03/26 10:25:45;;;;;;;19.42;2.30;;;8.30;99.90;;;;;;5072503;28;20071;-64
2023/03/26 10:28:36;;;;;;;18.98;2.78;;;8.40;99.90;;;;;;5068773;28;20633;-63
2023/03/26 10:31:05;;;;;;;18.55;2.63;;;8.50;99.90;;;;;;5072120;28;20036;-60
2023/03/26 10:33:36;;;;;;;15.48;2.13;;;8.50;99.90;;;;;;5072576;28;20450;-60
2023/03/26 10:36:19;;;;;;;14.48;2.50;;;8.50;99.90;;;;;;5072214;28;20444;-60
2023/03/26 10:38:48;;;;;;;8.73;1.55;;;8.20;99.90;;;;;;5073409;28;20688;-60
2023/03/26 10:41:14;;;;;;;14.50;3.80;;;8.50;99.90;;;;;;5072734;28;20040;-59
2023/03/26 10:43:58;;;;;;;12.18;2.53;;;8.50;99.90;;;;;;5074265;28;20048;-60
2023/03/26 10:46:52;;;;;;;23.65;3.47;;;8.50;99.90;;;;;;5073114;28;20564;-61
2023/03/26 10:49:47;;;;;;;19.13;2.83;;;6.80;99.90;;;;;;5074163;28;20059;-61
2023/03/26 10:52:19;;;;;;;18.08;2.72;;;8.50;99.90;;;;;;5073446;28;20040;-60
2023/03/26 10:55:10;;;;;;;13.80;2.60;;;8.60;99.90;;;;;;5073983;28;20051;-61
2023/03/26 10:57:51;;;;;;;15.10;2.58;;;8.50;99.90;;;;;;5073194;28;20052;-60
2023/03/26 11:00:25;;;;;;;11.15;1.85;;;8.50;99.90;;;;;;5073901;28;20051;-60
2023/03/26 11:03:05;;;;;;;18.02;3.08;;;8.40;99.90;;;;;;5073845;28;20420;-60
2023/03/26 11:06:06;;;;;;;15.02;3.13;;;8.40;99.90;;;;;;5072330;28;20118;-60
2023/03/26 11:08:45;;;;;;;16.10;2.53;;;8.80;99.90;;;;;;5073323;28;20044;-60
2023/03/26 11:11:30;;;;;;;15.82;3.17;;;8.70;99.90;;;;;;5071550;28;20504;-60
2023/03/26 11:14:15;;;;;;;14.38;2.22;;;9.20;99.90;;;;;;5072147;28;20181;-60
2023/03/26 11:17:02;;;;;;;19.17;3.88;;;8.70;99.90;;;;;;5071959;28;20051;-60
2023/03/26 11:20:12;;;;;;;12.20;2.30;;;8.70;99.90;;;;;;5071539;28;20694;-60
2023/03/26 11:22:55;;;;;;;14.05;3.00;;;8.60;99.90;;;;;;5009962;28;20062;-60
2023/03/26 11:25:41;;;;;;;13.63;1.90;;;8.90;99.90;;;;;;5009810;28;20033;-60
2023/03/26 11:28:17;;;;;;;11.82;2.08;;;8.90;99.90;;;;;;5054345;28;20064;-61
2023/03/26 11:31:01;;;;;;;14.00;2.03;;;8.90;99.90;;;;;;5071364;28;20044;-61
2023/03/26 11:33:39;;;;;;;14.80;2.10;;;9.10;99.90;;;;;;5071425;28;20044;-60
2023/03/26 11:36:09;;;;;;;11.90;1.85;;;8.90;99.90;;;;;;5072696;28;20052;-60
2023/03/26 11:38:45;;;;;;;16.10;2.53;;;8.70;99.90;;;;;;5071979;28;20114;-60
2023/03/26 11:41:13;;;;;;;13.75;2.42;;;8.70;99.90;;;;;;5072744;28;20035;-60
2023/03/26 11:43:40;;;;;;;16.20;2.25;;;8.60;99.90;;;;;;5072337;28;20039;-60
2023/03/26 11:46:11;;;;;;;14.48;2.30;;;8.60;99.90;;;;;;5072029;28;20576;-60
2023/03/26 11:49:05;;;;;;;12.45;1.73;;;8.60;99.90;;;;;;5072017;28;20638;-60
2023/03/26 11:51:42;;;;;;;14.90;2.42;;;8.60;99.90;;;;;;5072652;28;20044;-60
2023/03/26 11:54:11;;;;;;;11.10;2.75;;;8.90;99.90;;;;;;5072463;28;20050;-61
2023/03/26 11:56:56;;;;;;;13.52;2.85;;;8.60;99.90;;;;;;5073415;28;20040;-60
2023/03/26 11:59:44;;;;;;;10.88;1.95;;;8.50;99.90;;;;;;5073474;28;20447;-60
2023/03/26 12:02:12;;;;;;;8.52;1.52;;;8.50;99.90;;;;;;5073053;28;20044;-60
2023/03/26 12:04:49;;;;;;;12.32;2.10;;;8.60;99.90;;;;;;5071762;28;20081;-60
2023/03/26 12:07:32;;;;;;;16.40;2.50;;;8.40;99.90;;;;;;5073403;28;20123;-60
2023/03/26 12:10:00;;;;;;;17.75;2.20;;;8.50;99.90;;;;;;5073040;28;20043;-60
2023/03/26 12:12:38;;;;;;;13.35;2.15;;;9.60;99.90;;;;;;5072580;28;20432;-60
2023/03/26 12:15:15;;;;;;;9.88;1.48;;;8.10;99.90;;;;;;5072890;28;20067;-60
2023/03/26 12:17:41;;;;;;;15.00;2.22;;;8.50;99.90;;;;;;5073852;28;20044;-60
2023/03/26 12:20:25;;;;;;;12.35;2.03;;;8.90;99.90;;;;;;5072785;28;20048;-60
2023/03/26 12:22:52;;;;;;;12.07;1.92;;;8.40;99.90;;;;;;5072931;28;20965;-60
2023/03/26 12:25:22;;;;;;;10.98;1.58;;;8.40;99.90;;;;;;5072672;28;20044;-60
2023/03/26 12:28:01;;;;;;;9.77;2.20;;;8.30;99.90;;;;;;5071511;28;20420;-60
2023/03/26 12:30:29;;;;;;;11.95;2.47;;;8.50;99.90;;;;;;5072424;28;20048;-60
2023/03/26 12:33:18;;;;;;;12.32;2.42;;;8.40;99.90;;;;;;5072806;28;20048;-60
2023/03/26 12:35:44;;;;;;;9.70;1.70;;;8.50;99.90;;;;;;5072482;28;20040;-60
2023/03/26 12:38:38;;;;;;;15.20;2.85;;;8.40;99.90;;;;;;5071674;28;20051;-60
2023/03/26 12:41:06;;;;;;;16.15;3.50;;;8.20;99.90;;;;;;5071537;28;20040;-60
2023/03/26 12:43:52;;;;;;;14.20;3.08;;;8.40;99.90;;;;;;5073509;28;20603;-60
2023/03/26 12:46:23;;;;;;;15.00;3.08;;;8.40;99.90;;;;;;5074097;28;20059;-60
2023/03/26 12:48:55;;;;;;;16.45;1.98;;;8.60;99.90;;;;;;5075318;28;20326;-60
2023/03/26 12:51:39;;;;;;;9.68;1.70;;;8.60;99.90;;;;;;5075311;28;20052;-59
2023/03/26 12:54:30;;;;;;;11.10;2.70;;;8.40;99.90;;;;;;5074701;28;20052;-60
2023/03/26 12:57:08;;;;;;;17.05;3.80;;;8.50;99.90;;;;;;5075698;28;20295;-60
2023/03/26 12:59:51;;;;;;;10.25;2.08;;;8.40;99.90;;;;;;5075125;28;20734;-60
2023/03/26 13:02:51;;;;;;;11.95;2.33;;;8.30;99.90;;;;;;5074586;28;20078;-60
2023/03/26 13:05:36;;;;;;;11.88;1.92;;;8.70;99.90;;;;;;5073717;28;20058;-59
2023/03/26 13:08:29;;;;;;;10.07;1.95;;;8.20;99.90;;;;;;5075206;28;20123;-60
2023/03/26 13:11:59;;;;;;;12.38;2.53;;;8.30;99.90;;;;;;5075315;28;20044;-59
2023/03/26 13:14:45;;;;;;;12.55;1.95;;;8.20;99.90;;;;;;5037126;28;20049;-60
2023/03/26 13:17:29;;;;;;;13.93;3.47;;;9.30;99.90;;;;;;5037000;28;20043;-60
2023/03/26 13:20:33;;;;;;;9.02;2.08;;;8.30;99.90;;;;;;5062672;28;20054;-60
2023/03/26 13:23:01;;;;;;;13.85;1.70;;;8.40;99.90;;;;;;5063563;28;20054;-59
2023/03/26 13:25:39;;;;;;;11.23;2.83;;;9.20;99.90;;;;;;5075323;28;20040;-60
2023/03/26 13:28:36;;;;;;;20.52;4.05;;;8.00;99.90;;;;;;5075487;28;20044;-60
2023/03/26 13:31:16;;;;;;;13.30;2.65;;;8.10;99.90;;;;;;5076741;28;20139;-60
2023/03/26 13:33:59;;;;;;;21.50;7.03;;;8.10;99.90;;;;;;5074344;28;20047;-60
2023/03/26 13:36:37;;;;;;;12.32;2.08;;;8.10;99.90;;;;;;5075136;28;20404;-60